createdAt,value
2023-03-17T00:01:41.807Z,-0.29
2023-03-17T00:04:12.470Z,-0.21
2023-03-17T00:06:40.350Z,-0.33
2023-03-17T00:09:14.820Z,-0.42
2023-03-17T00:11:42.809Z,-0.34
2023-03-17T00:14:10.114Z,-0.47
2023-03-17T00:16:43.000Z,-0.44
2023-03-17T00:19:17.202Z,-0.47
2023-03-17T00:21:46.102Z,-0.57
2023-03-17T00:24:15.066Z,-0.65
2023-03-17T00:26:43.367Z,-0.57
2023-03-17T00:29:10.838Z,-0.69
2023-03-17T00:31:38.429Z,-0.68
2023-03-17T00:34:05.996Z,-0.85
2023-03-17T00:36:33.595Z,-0.81
2023-03-17T00:39:03.890Z,-0.68
2023-03-17T00:41:31.161Z,-0.88
2023-03-17T00:43:59.719Z,-0.75
2023-03-17T00:46:35.834Z,-0.75
2023-03-17T00:51:44.831Z,-0.85
2023-03-17T00:54:12.376Z,-0.91
2023-03-17T00:56:39.912Z,-0.88
2023-03-17T00:59:30.447Z,-0.83
2023-03-17T01:01:57.777Z,-0.96
2023-03-17T01:04:25.505Z,-0.96
2023-03-17T01:06:53.088Z,-0.87
2023-03-17T01:09:20.654Z,-0.93
2023-03-17T01:11:48.768Z,-0.97
2023-03-17T01:14:16.082Z,-0.87
2023-03-17T01:16:44.845Z,-0.88
2023-03-17T01:19:12.579Z,-0.84
2023-03-17T01:21:40.737Z,-0.86
2023-03-17T01:24:08.410Z,-0.91
2023-03-17T01:26:36.089Z,-0.79
2023-03-17T01:29:04.818Z,-0.86
2023-03-17T01:31:32.286Z,-0.86
2023-03-17T01:33:59.870Z,-0.96
2023-03-17T01:36:27.191Z,-1.04
2023-03-17T01:38:54.445Z,-1.07
2023-03-17T01:41:21.939Z,-0.94
2023-03-17T01:43:49.974Z,-0.95
2023-03-17T01:46:21.450Z,-1.01
2023-03-17T01:49:07.971Z,-0.86
2023-03-17T01:51:55.765Z,-0.94
2023-03-17T01:54:34.979Z,-1.01
2023-03-17T01:57:28.631Z,-1.00
2023-03-17T01:59:58.227Z,-0.96
2023-03-17T02:02:30.961Z,-1.03
2023-03-17T02:04:58.515Z,-1.05
2023-03-17T02:07:26.635Z,-0.93
2023-03-17T02:09:54.742Z,-0.94
2023-03-17T02:12:22.570Z,-0.90
2023-03-17T02:14:50.318Z,-0.89
2023-03-17T02:17:22.106Z,-0.84
2023-03-17T02:19:49.801Z,-0.92
2023-03-17T02:22:17.835Z,-0.96
2023-03-17T02:24:51.296Z,-0.83
2023-03-17T02:27:34.893Z,-0.88
2023-03-17T02:30:02.624Z,-0.92
2023-03-17T02:32:29.997Z,-0.90
2023-03-17T02:34:57.410Z,-0.91
2023-03-17T02:37:24.674Z,-1.02
2023-03-17T02:39:52.660Z,-1.01
2023-03-17T02:42:19.952Z,-0.97
2023-03-17T02:44:47.248Z,-1.03
2023-03-17T02:47:14.610Z,-1.15
2023-03-17T02:49:42.075Z,-1.19
2023-03-17T02:52:09.478Z,-1.23
2023-03-17T02:54:36.855Z,-1.15
2023-03-17T02:57:04.237Z,-1.26
2023-03-17T02:59:32.002Z,-1.35
2023-03-17T03:01:59.272Z,-1.22
2023-03-17T03:04:27.237Z,-1.36
2023-03-17T03:06:54.878Z,-1.28
2023-03-17T03:09:22.336Z,-1.31
2023-03-17T03:11:49.757Z,-1.25
2023-03-17T03:14:17.078Z,-1.22
2023-03-17T03:16:44.585Z,-1.28
2023-03-17T03:19:12.354Z,-1.47
2023-03-17T03:21:39.778Z,-1.37
2023-03-17T03:24:07.294Z,-1.36
2023-03-17T03:26:34.595Z,-1.37
2023-03-17T03:29:02.265Z,-1.42
2023-03-17T03:31:29.580Z,-1.40
2023-03-17T03:33:56.970Z,-1.35
2023-03-17T03:36:25.368Z,-1.41
2023-03-17T03:38:52.631Z,-1.43
2023-03-17T03:41:19.885Z,-1.40
2023-03-17T03:43:47.143Z,-1.54
2023-03-17T03:46:15.720Z,-1.48
2023-03-17T03:48:43.114Z,-1.48
2023-03-17T03:51:10.481Z,-1.59
2023-03-17T03:53:37.733Z,-1.53
2023-03-17T03:56:05.444Z,-1.65
2023-03-17T03:58:32.714Z,-1.56
2023-03-17T04:01:00.011Z,-1.57
2023-03-17T04:03:27.986Z,-1.58
2023-03-17T04:05:55.252Z,-1.67
2023-03-17T04:08:22.584Z,-1.77
2023-03-17T04:10:49.868Z,-1.65
2023-03-17T04:13:17.196Z,-1.70
2023-03-17T04:15:44.448Z,-1.72
2023-03-17T04:18:11.718Z,-1.84
2023-03-17T04:20:39.056Z,-1.72
2023-03-17T04:23:06.660Z,-1.82
2023-03-17T04:25:33.955Z,-1.76
2023-03-17T04:28:01.239Z,-1.77
2023-03-17T04:30:29.055Z,-1.74
2023-03-17T04:32:56.687Z,-1.80
2023-03-17T04:35:24.024Z,-1.78
2023-03-17T04:37:51.597Z,-1.84
2023-03-17T04:40:19.259Z,-1.77
2023-03-17T04:42:46.578Z,-1.74
2023-03-17T04:45:15.539Z,-1.73
2023-03-17T04:47:42.948Z,-1.69
2023-03-17T04:50:10.860Z,-1.75
2023-03-17T04:52:38.818Z,-1.91
2023-03-17T04:55:08.314Z,-1.78
2023-03-17T04:57:36.679Z,-1.79
2023-03-17T05:00:05.226Z,-1.82
2023-03-17T05:02:32.554Z,-1.83
2023-03-17T05:04:59.949Z,-1.74
2023-03-17T05:07:27.187Z,-1.67
2023-03-17T05:09:54.454Z,-1.59
2023-03-17T05:12:21.837Z,-1.51
2023-03-17T05:14:49.107Z,-1.53
2023-03-17T05:17:16.337Z,-1.35
2023-03-17T05:19:43.710Z,-1.39
2023-03-17T05:22:11.619Z,-1.41
2023-03-17T05:24:38.888Z,-1.39
2023-03-17T05:27:06.224Z,-1.29
2023-03-17T05:29:33.743Z,-1.46
2023-03-17T05:32:01.034Z,-1.30
2023-03-17T05:34:28.277Z,-1.17
2023-03-17T05:36:55.614Z,-0.96
2023-03-17T05:39:22.936Z,-0.92
2023-03-17T05:41:51.262Z,-0.74
2023-03-17T05:44:18.556Z,-0.70
2023-03-17T05:46:46.141Z,-0.55
2023-03-17T05:49:13.704Z,-0.49
2023-03-17T05:51:42.112Z,-0.39
2023-03-17T05:54:09.415Z,-0.35
2023-03-17T05:56:36.774Z,-0.35
2023-03-17T05:59:04.691Z,-0.29
2023-03-17T06:01:32.514Z,-0.26
2023-03-17T06:04:01.225Z,-0.17
2023-03-17T06:06:28.783Z,0.06
2023-03-17T06:08:56.123Z,0.16
2023-03-17T06:11:23.527Z,0.18
2023-03-17T06:13:50.860Z,0.32
2023-03-17T06:16:18.370Z,0.37
2023-03-17T06:18:46.025Z,0.50
2023-03-17T06:21:13.744Z,0.64
2023-03-17T06:23:41.146Z,0.70
2023-03-17T06:26:08.532Z,0.93
2023-03-17T06:28:36.467Z,0.98
2023-03-17T06:31:06.735Z,1.03
2023-03-17T06:33:35.413Z,1.23
2023-03-17T06:36:03.414Z,1.27
2023-03-17T06:38:30.818Z,1.25
2023-03-17T06:40:58.206Z,1.42
2023-03-17T06:43:27.563Z,1.74
2023-03-17T06:45:55.226Z,1.84
2023-03-17T06:48:25.558Z,1.86
2023-03-17T06:50:52.904Z,2.12
2023-03-17T06:53:29.504Z,2.11
2023-03-17T06:55:57.070Z,2.16
2023-03-17T06:58:27.504Z,2.34
2023-03-17T07:00:54.843Z,2.36
2023-03-17T07:03:24.089Z,2.28
2023-03-17T07:05:52.534Z,2.50
2023-03-17T07:08:22.453Z,2.66
2023-03-17T07:10:58.585Z,2.66
2023-03-17T07:13:27.363Z,3.21
2023-03-17T07:19:03.007Z,3.09
2023-03-17T07:21:33.427Z,3.30
2023-03-17T07:24:00.788Z,3.54
2023-03-17T07:26:28.146Z,3.54
2023-03-17T07:29:01.424Z,3.76
2023-03-17T07:31:57.273Z,3.87
2023-03-17T07:34:35.157Z,4.03
2023-03-17T07:37:13.379Z,4.28
2023-03-17T07:39:55.318Z,4.23
2023-03-17T07:42:24.342Z,4.20
2023-03-17T07:44:51.671Z,4.24
2023-03-17T07:47:21.658Z,4.42
2023-03-17T07:49:49.124Z,4.51
2023-03-17T07:52:16.566Z,4.56
2023-03-17T07:54:46.573Z,4.66
2023-03-17T07:57:24.394Z,4.66
2023-03-17T07:59:54.715Z,4.86
2023-03-17T08:02:32.588Z,4.85
2023-03-17T08:05:00.370Z,5.08
2023-03-17T08:07:27.713Z,5.10
2023-03-17T08:09:55.087Z,5.37
2023-03-17T08:12:22.539Z,5.43
2023-03-17T08:14:50.410Z,5.56
2023-03-17T08:17:36.639Z,5.69
2023-03-17T08:20:04.973Z,5.56
2023-03-17T08:22:32.347Z,5.86
2023-03-17T08:24:59.797Z,5.81
2023-03-17T08:27:31.915Z,5.97
2023-03-17T08:30:12.932Z,5.76
2023-03-17T08:32:41.422Z,5.99
2023-03-17T08:35:18.663Z,5.81
2023-03-17T08:37:56.206Z,5.80
2023-03-17T08:40:26.916Z,5.99
2023-03-17T08:42:57.606Z,6.29
2023-03-17T08:46:00.978Z,6.21
2023-03-17T08:48:47.766Z,6.08
2023-03-17T08:51:24.165Z,6.27
2023-03-17T08:53:52.171Z,6.43
2023-03-17T08:56:20.705Z,6.41
2023-03-17T08:58:48.426Z,6.49
2023-03-17T09:01:16.125Z,6.64
2023-03-17T09:03:43.694Z,6.49
2023-03-17T09:06:12.531Z,6.55
2023-03-17T09:08:44.596Z,6.69
2023-03-17T09:11:14.875Z,6.96
2023-03-17T09:13:42.274Z,7.01
2023-03-17T09:16:10.109Z,7.02
2023-03-17T09:18:40.720Z,7.05
2023-03-17T09:21:08.904Z,7.12
2023-03-17T09:23:36.260Z,7.01
2023-03-17T09:26:03.932Z,7.07
2023-03-17T09:28:31.889Z,7.02
2023-03-17T09:30:59.969Z,7.13
2023-03-17T09:33:27.505Z,7.40
2023-03-17T09:35:57.287Z,7.34
2023-03-17T09:38:25.971Z,7.61
2023-03-17T09:41:00.449Z,7.54
2023-03-17T09:43:37.262Z,7.49
2023-03-17T09:46:18.965Z,7.42
2023-03-17T09:49:07.687Z,7.68
2023-03-17T09:51:35.796Z,7.68
2023-03-17T09:54:18.542Z,7.89
2023-03-17T09:56:50.814Z,7.73
2023-03-17T09:59:35.369Z,7.64
2023-03-17T10:02:02.761Z,7.95
2023-03-17T10:04:30.138Z,8.19
2023-03-17T10:07:04.931Z,8.19
2023-03-17T10:09:44.238Z,8.06
2023-03-17T10:12:26.540Z,8.07
2023-03-17T10:15:07.062Z,8.36
2023-03-17T10:18:03.996Z,8.30
2023-03-17T10:20:33.241Z,8.40
2023-03-17T10:23:05.358Z,8.48
2023-03-17T10:25:34.733Z,8.41
2023-03-17T10:28:24.681Z,8.43
2023-03-17T10:30:52.763Z,8.69
2023-03-17T10:33:21.853Z,8.38
2023-03-17T10:35:51.872Z,8.56
2023-03-17T10:42:43.955Z,8.66
2023-03-17T10:45:31.013Z,8.74
2023-03-17T10:47:59.316Z,8.63
2023-03-17T10:50:29.189Z,8.56
2023-03-17T10:53:00.826Z,8.84
2023-03-17T10:55:31.419Z,8.86
2023-03-17T10:58:15.366Z,9.02
2023-03-17T11:00:57.305Z,9.28
2023-03-17T11:03:29.973Z,9.38
2023-03-17T11:06:11.720Z,9.13
2023-03-17T11:08:47.079Z,9.33
2023-03-17T11:11:28.813Z,9.41
2023-03-17T11:14:03.539Z,9.33
2023-03-17T11:16:37.694Z,9.39
2023-03-17T11:19:07.579Z,9.68
2023-03-17T11:22:15.394Z,9.80
2023-03-17T11:25:04.409Z,9.94
2023-03-17T11:27:34.329Z,9.80
2023-03-17T11:30:14.999Z,9.77
2023-03-17T11:32:57.705Z,9.86
2023-03-17T11:35:46.377Z,9.91
2023-03-17T11:38:17.344Z,9.79
2023-03-17T11:40:44.564Z,10.01
2023-03-17T11:43:24.481Z,10.01
2023-03-17T11:45:54.553Z,10.02
2023-03-17T11:49:15.972Z,9.96
2023-03-17T11:52:19.416Z,10.25
2023-03-17T11:54:59.697Z,10.55
2023-03-17T11:57:57.760Z,10.29
2023-03-17T12:00:28.414Z,9.97
2023-03-17T12:03:23.330Z,10.19
2023-03-17T12:08:46.997Z,10.68
2023-03-17T12:14:14.416Z,10.70
2023-03-17T12:16:46.454Z,10.63
2023-03-17T12:19:28.594Z,10.54
2023-03-17T12:22:22.771Z,10.54
2023-03-17T12:25:08.925Z,10.53
2023-03-17T12:27:52.899Z,10.76
2023-03-17T12:30:25.220Z,11.00
2023-03-17T12:33:01.205Z,10.95
2023-03-17T12:35:31.865Z,11.40
2023-03-17T12:38:00.536Z,11.39
2023-03-17T12:40:36.726Z,11.55
2023-03-17T12:43:46.895Z,11.43
2023-03-17T12:46:33.807Z,11.47
2023-03-17T12:49:13.499Z,11.67
2023-03-17T12:52:01.925Z,11.63
2023-03-17T12:54:31.717Z,11.62
2023-03-17T12:57:12.445Z,11.41
2023-03-17T12:59:45.125Z,11.48
2023-03-17T13:02:29.674Z,11.85
2023-03-17T13:05:00.760Z,11.51
2023-03-17T13:07:52.940Z,11.31
2023-03-17T13:10:40.150Z,11.58
2023-03-17T13:13:14.005Z,11.45
2023-03-17T13:15:48.544Z,11.90
2023-03-17T13:18:16.245Z,12.08
2023-03-17T13:20:43.550Z,12.12
2023-03-17T13:23:10.837Z,11.72
2023-03-17T13:25:38.890Z,11.65
2023-03-17T13:28:30.754Z,11.77
2023-03-17T13:31:27.404Z,11.32
2023-03-17T13:33:56.366Z,11.39
2023-03-17T13:36:40.669Z,11.48
2023-03-17T13:39:27.134Z,11.80
2023-03-17T13:50:27.643Z,11.13
2023-03-17T13:52:56.852Z,11.80
2023-03-17T13:55:24.149Z,11.70
2023-03-17T13:58:11.388Z,11.99
2023-03-17T14:00:55.266Z,12.11
2023-03-17T14:03:37.909Z,12.11
2023-03-17T14:06:06.664Z,11.75
2023-03-17T14:08:38.494Z,11.71
2023-03-17T14:11:24.374Z,12.12
2023-03-17T14:14:04.349Z,12.14
2023-03-17T14:16:36.991Z,11.45
2023-03-17T14:19:32.502Z,11.53
2023-03-17T14:22:32.790Z,12.17
2023-03-17T14:25:01.632Z,12.74
2023-03-17T14:27:30.159Z,13.55
2023-03-17T14:29:57.465Z,14.40
2023-03-17T14:32:26.786Z,15.43
2023-03-17T14:34:58.284Z,15.49
2023-03-17T14:37:26.080Z,15.65
2023-03-17T14:39:54.956Z,15.52
2023-03-17T14:42:27.346Z,14.16
2023-03-17T14:45:22.235Z,14.26
2023-03-17T14:47:49.519Z,14.15
2023-03-17T14:50:35.172Z,13.77
2023-03-17T14:53:02.518Z,14.34
2023-03-17T14:55:35.983Z,14.01
2023-03-17T14:58:09.114Z,14.18
2023-03-17T15:00:39.958Z,14.04
2023-03-17T15:03:21.494Z,14.03
2023-03-17T15:05:48.961Z,14.13
2023-03-17T15:08:34.520Z,13.56
2023-03-17T15:11:04.365Z,13.02
2023-03-17T15:13:34.050Z,12.56
2023-03-17T15:16:16.069Z,12.91
2023-03-17T15:18:43.928Z,12.67
2023-03-17T15:21:34.216Z,12.55
2023-03-17T15:24:25.579Z,12.14
2023-03-17T15:27:00.829Z,11.57
2023-03-17T15:29:28.590Z,11.34
2023-03-17T15:32:06.892Z,11.08
2023-03-17T15:34:34.184Z,10.86
2023-03-17T15:37:01.634Z,10.28
2023-03-17T15:39:28.950Z,10.22
2023-03-17T15:41:56.261Z,10.01
2023-03-17T15:44:23.557Z,9.98
2023-03-17T15:46:51.233Z,9.99
2023-03-17T15:49:18.580Z,9.75
2023-03-17T15:51:45.978Z,9.80
2023-03-17T15:54:14.391Z,9.58
2023-03-17T15:56:43.307Z,9.45
2023-03-17T15:59:10.672Z,9.46
2023-03-17T16:01:38.049Z,9.43
2023-03-17T16:04:07.036Z,9.16
2023-03-17T16:06:34.856Z,8.98
2023-03-17T16:09:02.310Z,8.89
2023-03-17T16:11:31.025Z,8.85
2023-03-17T16:13:59.665Z,8.92
2023-03-17T16:16:31.690Z,8.98
2023-03-17T16:18:59.171Z,8.93
2023-03-17T16:21:26.639Z,8.79
2023-03-17T16:23:54.088Z,8.77
2023-03-17T16:26:21.426Z,8.77
2023-03-17T16:28:49.692Z,8.60
2023-03-17T16:31:25.571Z,8.48
2023-03-17T16:33:54.988Z,8.38
2023-03-17T16:36:23.296Z,8.22
2023-03-17T16:38:50.983Z,8.09
2023-03-17T16:41:25.271Z,8.09
2023-03-17T16:43:55.245Z,7.92
2023-03-17T16:46:22.725Z,7.84
2023-03-17T16:48:50.458Z,7.70
2023-03-17T16:51:25.399Z,7.76
2023-03-17T16:53:55.830Z,7.57
2023-03-17T16:56:25.339Z,7.51
2023-03-17T16:58:52.733Z,7.40
2023-03-17T17:01:25.178Z,7.23
2023-03-17T17:03:52.501Z,7.18
2023-03-17T17:06:20.705Z,7.08
2023-03-17T17:08:48.723Z,6.98
2023-03-17T17:11:16.823Z,6.97
2023-03-17T17:13:45.596Z,6.87
2023-03-17T17:16:42.533Z,6.79
2023-03-17T17:19:14.318Z,6.77
2023-03-17T17:21:41.683Z,6.71
2023-03-17T17:24:12.999Z,6.65
2023-03-17T17:26:40.558Z,6.64
2023-03-17T17:29:07.859Z,6.58
2023-03-17T17:31:35.455Z,6.46
2023-03-17T17:34:02.786Z,6.33
2023-03-17T17:36:30.129Z,6.22
2023-03-17T17:38:57.453Z,6.21
2023-03-17T17:41:24.753Z,6.14
2023-03-17T17:43:53.722Z,5.99
2023-03-17T17:46:21.994Z,5.98
2023-03-17T17:48:49.414Z,5.92
2023-03-17T17:51:16.760Z,5.85
2023-03-17T17:53:44.179Z,5.76
2023-03-17T17:56:14.812Z,5.84
2023-03-17T17:58:42.388Z,5.90
2023-03-17T18:01:14.190Z,5.86
2023-03-17T18:03:42.991Z,5.78
2023-03-17T18:06:10.721Z,5.68
2023-03-17T18:08:37.982Z,5.59
2023-03-17T18:11:05.641Z,5.47
2023-03-17T18:13:34.457Z,5.42
2023-03-17T18:16:01.891Z,5.38
2023-03-17T18:18:29.263Z,5.29
2023-03-17T18:20:56.601Z,5.40
2023-03-17T18:23:24.044Z,5.25
2023-03-17T18:25:52.069Z,5.25
2023-03-17T18:28:19.358Z,5.25
2023-03-17T18:30:46.988Z,5.26
2023-03-17T18:33:17.085Z,5.19
2023-03-17T18:35:46.655Z,5.08
2023-03-17T18:38:13.958Z,5.01
2023-03-17T18:40:42.066Z,4.97
2023-03-17T18:43:09.417Z,4.88
2023-03-17T18:45:36.767Z,4.70
2023-03-17T18:48:04.068Z,4.71
2023-03-17T18:50:31.623Z,4.70
2023-03-17T18:52:59.042Z,4.73
2023-03-17T18:55:26.357Z,4.61
2023-03-17T18:57:54.966Z,4.46
2023-03-17T19:00:24.652Z,4.37
2023-03-17T19:02:52.233Z,4.42
2023-03-17T19:05:19.681Z,4.37
2023-03-17T19:07:47.152Z,4.33
2023-03-17T19:10:14.578Z,4.29
2023-03-17T19:12:42.624Z,4.36
2023-03-17T19:15:10.695Z,4.36
2023-03-17T19:17:38.518Z,4.30
2023-03-17T19:20:06.397Z,4.30
2023-03-17T19:22:33.981Z,4.18
2023-03-17T19:25:01.273Z,4.29
2023-03-17T19:27:28.567Z,4.34
2023-03-17T19:29:55.957Z,4.29
2023-03-17T19:32:23.212Z,4.19
2023-03-17T19:34:50.662Z,4.05
2023-03-17T19:37:17.953Z,3.79
2023-03-17T19:39:45.286Z,3.88
2023-03-17T19:42:12.763Z,3.77
2023-03-17T19:44:40.165Z,3.59
2023-03-17T19:47:08.342Z,3.46
2023-03-17T19:49:36.644Z,3.46
2023-03-17T19:52:05.201Z,3.45
2023-03-17T19:54:32.430Z,3.34
2023-03-17T19:56:59.737Z,3.23
2023-03-17T19:59:27.191Z,3.31
2023-03-17T20:01:54.520Z,3.33
2023-03-17T20:04:23.132Z,3.30
2023-03-17T20:06:55.620Z,3.22
2023-03-17T20:09:27.251Z,3.28
2023-03-17T20:11:54.706Z,3.25
2023-03-17T20:14:22.085Z,3.07
2023-03-17T20:16:49.537Z,3.07
2023-03-17T20:19:16.976Z,3.05
2023-03-17T20:21:44.224Z,3.01
2023-03-17T20:24:14.611Z,2.99
2023-03-17T20:26:43.382Z,2.96
2023-03-17T20:29:12.775Z,2.87
2023-03-17T20:31:40.361Z,2.81
2023-03-17T20:34:07.979Z,2.84
2023-03-17T20:36:35.259Z,2.74
2023-03-17T20:39:02.518Z,2.70
2023-03-17T20:41:29.818Z,2.63
2023-03-17T20:43:57.141Z,2.50
2023-03-17T20:46:24.909Z,2.48
2023-03-17T20:48:58.424Z,2.48
2023-03-17T20:51:26.268Z,2.43
2023-03-17T20:53:53.815Z,2.38
2023-03-17T20:56:22.401Z,2.34
2023-03-17T20:58:50.185Z,2.26
2023-03-17T21:01:20.786Z,2.10
2023-03-17T21:03:48.547Z,2.31
2023-03-17T21:06:15.923Z,2.19
2023-03-17T21:08:43.223Z,2.09
2023-03-17T21:11:14.777Z,2.08
2023-03-17T21:13:44.136Z,1.91
2023-03-17T21:16:19.905Z,1.91
2023-03-17T21:18:47.582Z,1.87
2023-03-17T21:21:15.241Z,1.92
2023-03-17T21:23:42.648Z,1.84
2023-03-17T21:26:10.734Z,1.79
2023-03-17T21:28:41.361Z,1.75
2023-03-17T21:31:09.627Z,1.75
2023-03-17T21:33:37.126Z,1.69
2023-03-17T21:36:05.172Z,1.66
2023-03-17T21:38:32.680Z,1.57
2023-03-17T21:41:18.486Z,1.20
2023-03-17T21:43:46.675Z,1.52
2023-03-17T21:46:14.512Z,1.55
2023-03-17T21:48:41.944Z,1.54
2023-03-17T21:51:09.235Z,1.54
2023-03-17T21:53:36.512Z,1.56
2023-03-17T21:56:04.093Z,1.43
2023-03-17T21:58:31.377Z,1.43
2023-03-17T22:01:00.699Z,1.30
2023-03-17T22:03:28.114Z,1.33
2023-03-17T22:05:56.695Z,1.19
2023-03-17T22:08:24.225Z,1.10
2023-03-17T22:10:51.928Z,1.07
2023-03-17T22:13:19.227Z,1.10
2023-03-17T22:15:46.531Z,1.12
2023-03-17T22:18:14.153Z,1.07
2023-03-17T22:20:41.403Z,1.11
2023-03-17T22:23:08.654Z,0.97
2023-03-17T22:25:35.969Z,1.00
2023-03-17T22:28:03.246Z,0.86
2023-03-17T22:30:30.907Z,0.89
2023-03-17T22:32:58.317Z,0.71
2023-03-17T22:35:25.930Z,0.64
2023-03-17T22:37:53.273Z,0.64
2023-03-17T22:40:20.548Z,0.70
2023-03-17T22:42:47.818Z,0.81
2023-03-17T22:45:15.387Z,0.71
2023-03-17T22:47:42.656Z,0.55
2023-03-17T22:50:10.497Z,0.55
2023-03-17T22:52:38.187Z,0.57
2023-03-17T22:55:06.585Z,0.55
2023-03-17T22:57:34.121Z,0.55
2023-03-17T23:00:01.393Z,0.59
2023-03-17T23:02:28.680Z,0.57
2023-03-17T23:04:55.988Z,0.47
2023-03-17T23:07:23.247Z,0.36
2023-03-17T23:09:50.538Z,0.32
2023-03-17T23:12:18.442Z,0.38
2023-03-17T23:14:45.918Z,0.27
2023-03-17T23:17:13.212Z,0.40
2023-03-17T23:19:41.144Z,0.25
2023-03-17T23:22:08.568Z,0.33
2023-03-17T23:24:36.040Z,0.22
2023-03-17T23:27:03.314Z,0.15
2023-03-17T23:29:31.093Z,0.13
2023-03-17T23:31:58.960Z,0.16
2023-03-17T23:34:26.488Z,0.22
2023-03-17T23:36:53.955Z,0.24
2023-03-17T23:39:21.239Z,0.16
2023-03-17T23:41:48.489Z,0.10
2023-03-17T23:44:16.385Z,-0.04
2023-03-17T23:46:45.112Z,-0.10
2023-03-17T23:49:13.544Z,0.03
2023-03-17T23:51:40.890Z,0.10
2023-03-17T23:54:09.539Z,0.12
2023-03-17T23:56:36.820Z,0.09
2023-03-17T23:59:04.149Z,0.07
